sensor_id;sensor_type;location;lat;lon;timestamp;pressure;altitude;pressure_sealevel;temperature;humidity
15477;BME280;7840;42.702;23.296;2023-01-31T00:00:47;94626.34;;;-1.04;100.00
15477;BME280;7840;42.702;23.296;2023-01-31T00:03:15;94630.19;;;-1.00;100.00
15477;BME280;7840;42.702;23.296;2023-01-31T00:05:44;94638.00;;;-1.00;100.00
15477;BME280;7840;42.702;23.296;2023-01-31T00:08:21;94638.81;;;-1.00;100.00
15477;BME280;7840;42.702;23.296;2023-01-31T00:10:50;94637.78;;;-0.77;100.00
15477;BME280;7840;42.702;23.296;2023-01-31T00:13:18;94622.00;;;-0.54;100.00
15477;BME280;7840;42.702;23.296;2023-01-31T00:15:46;94621.25;;;-0.42;100.00
15477;BME280;7840;42.702;23.296;2023-01-31T00:18:14;94620.31;;;-0.62;100.00
15477;BME280;7840;42.702;23.296;2023-01-31T00:20:51;94621.56;;;-0.58;100.00
15477;BME280;7840;42.702;23.296;2023-01-31T00:23:19;94628.31;;;-0.64;100.00
15477;BME280;7840;42.702;23.296;2023-01-31T00:25:47;94625.72;;;-0.85;100.00
15477;BME280;7840;42.702;23.296;2023-01-31T00:28:16;94628.94;;;-0.83;100.00
15477;BME280;7840;42.702;23.296;2023-01-31T00:30:44;94626.47;;;-0.91;100.00
15477;BME280;7840;42.702;23.296;2023-01-31T00:33:12;94619.19;;;-1.02;100.00
15477;BME280;7840;42.702;23.296;2023-01-31T00:38:13;94622.75;;;-1.03;100.00
15477;BME280;7840;42.702;23.296;2023-01-31T00:40:41;94619.13;;;-1.09;100.00
15477;BME280;7840;42.702;23.296;2023-01-31T00:43:09;94621.91;;;-1.11;100.00
15477;BME280;7840;42.702;23.296;2023-01-31T00:48:14;94620.34;;;-1.05;100.00
15477;BME280;7840;42.702;23.296;2023-01-31T00:50:45;94627.59;;;-1.00;100.00
15477;BME280;7840;42.702;23.296;2023-01-31T00:53:13;94621.22;;;-0.98;100.00
15477;BME280;7840;42.702;23.296;2023-01-31T00:55:42;94612.06;;;-0.94;100.00
15477;BME280;7840;42.702;23.296;2023-01-31T00:58:10;94614.22;;;-0.97;100.00
15477;BME280;7840;42.702;23.296;2023-01-31T01:00:40;94615.72;;;-0.88;100.00
15477;BME280;7840;42.702;23.296;2023-01-31T01:03:08;94614.72;;;-0.87;100.00
15477;BME280;7840;42.702;23.296;2023-01-31T01:05:43;94636.53;;;-0.88;100.00
15477;BME280;7840;42.702;23.296;2023-01-31T01:08:11;94632.66;;;-0.92;100.00
15477;BME280;7840;42.702;23.296;2023-01-31T01:10:39;94625.38;;;-0.82;100.00
15477;BME280;7840;42.702;23.296;2023-01-31T01:13:06;94637.75;;;-0.84;100.00
15477;BME280;7840;42.702;23.296;2023-01-31T01:15:37;94642.94;;;-0.84;100.00
15477;BME280;7840;42.702;23.296;2023-01-31T01:18:14;94635.38;;;-0.79;100.00
15477;BME280;7840;42.702;23.296;2023-01-31T01:20:43;94638.47;;;-0.69;100.00
15477;BME280;7840;42.702;23.296;2023-01-31T01:23:14;94624.72;;;-0.63;100.00
15477;BME280;7840;42.702;23.296;2023-01-31T01:25:42;94622.25;;;-0.71;100.00
15477;BME280;7840;42.702;23.296;2023-01-31T01:28:10;94621.50;;;-0.65;100.00
15477;BME280;7840;42.702;23.296;2023-01-31T01:30:40;94615.16;;;-0.56;100.00
15477;BME280;7840;42.702;23.296;2023-01-31T01:33:12;94613.09;;;-0.67;100.00
15477;BME280;7840;42.702;23.296;2023-01-31T01:35:39;94622.00;;;-0.76;100.00
15477;BME280;7840;42.702;23.296;2023-01-31T01:38:20;94623.63;;;-0.75;100.00
15477;BME280;7840;42.702;23.296;2023-01-31T01:40:50;94623.50;;;-0.67;100.00
15477;BME280;7840;42.702;23.296;2023-01-31T01:43:18;94624.13;;;-0.86;100.00
15477;BME280;7840;42.702;23.296;2023-01-31T01:45:45;94627.03;;;-0.74;100.00
15477;BME280;7840;42.702;23.296;2023-01-31T01:48:16;94618.66;;;-0.70;100.00
15477;BME280;7840;42.702;23.296;2023-01-31T01:50:45;94617.03;;;-0.71;100.00
15477;BME280;7840;42.702;23.296;2023-01-31T01:53:29;94617.19;;;-0.79;100.00
15477;BME280;7840;42.702;23.296;2023-01-31T01:56:02;94624.84;;;-0.71;100.00
15477;BME280;7840;42.702;23.296;2023-01-31T01:58:32;94631.34;;;-0.60;100.00
15477;BME280;7840;42.702;23.296;2023-01-31T02:01:04;94616.00;;;-0.48;100.00
15477;BME280;7840;42.702;23.296;2023-01-31T02:03:38;94616.28;;;-0.37;100.00
15477;BME280;7840;42.702;23.296;2023-01-31T02:06:23;94615.97;;;-0.27;100.00
15477;BME280;7840;42.702;23.296;2023-01-31T02:08:53;94629.34;;;-0.30;100.00
15477;BME280;7840;42.702;23.296;2023-01-31T02:11:26;94628.84;;;-0.19;100.00
15477;BME280;7840;42.702;23.296;2023-01-31T02:13:59;94629.47;;;-0.10;99.03
15477;BME280;7840;42.702;23.296;2023-01-31T02:16:27;94636.72;;;-0.06;97.20
15477;BME280;7840;42.702;23.296;2023-01-31T02:18:56;94629.53;;;-0.04;96.85
15477;BME280;7840;42.702;23.296;2023-01-31T02:22:07;94629.13;;;-0.01;96.40
15477;BME280;7840;42.702;23.296;2023-01-31T02:34:39;94640.78;;;0.04;91.50
15477;BME280;7840;42.702;23.296;2023-01-31T02:37:25;94636.81;;;0.08;91.80
15477;BME280;7840;42.702;23.296;2023-01-31T02:40:07;94639.16;;;0.03;90.83
15477;BME280;7840;42.702;23.296;2023-01-31T02:42:52;94645.59;;;0.07;89.72
15477;BME280;7840;42.702;23.296;2023-01-31T02:45:28;94635.97;;;0.01;92.02
15477;BME280;7840;42.702;23.296;2023-01-31T02:48:07;94637.09;;;-0.09;92.75
15477;BME280;7840;42.702;23.296;2023-01-31T02:50:45;94640.59;;;0.12;90.79
15477;BME280;7840;42.702;23.296;2023-01-31T02:53:23;94660.84;;;0.10;90.92
15477;BME280;7840;42.702;23.296;2023-01-31T02:55:56;94662.28;;;0.19;91.33
15477;BME280;7840;42.702;23.296;2023-01-31T02:58:46;94667.72;;;0.24;91.56
15477;BME280;7840;42.702;23.296;2023-01-31T03:01:23;94669.25;;;0.12;92.89
15477;BME280;7840;42.702;23.296;2023-01-31T03:03:53;94679.31;;;0.15;94.36
15477;BME280;7840;42.702;23.296;2023-01-31T03:07:00;94680.09;;;0.15;94.41
15477;BME280;7840;42.702;23.296;2023-01-31T03:09:40;94685.50;;;0.14;94.70
15477;BME280;7840;42.702;23.296;2023-01-31T03:12:35;94689.47;;;0.10;96.00
15477;BME280;7840;42.702;23.296;2023-01-31T03:15:44;94701.25;;;0.06;97.95
15477;BME280;7840;42.702;23.296;2023-01-31T03:18:36;94704.66;;;0.06;98.33
15477;BME280;7840;42.702;23.296;2023-01-31T03:21:12;94701.81;;;-0.06;100.00
15477;BME280;7840;42.702;23.296;2023-01-31T03:23:44;94699.59;;;-0.02;100.00
15477;BME280;7840;42.702;23.296;2023-01-31T03:26:16;94708.00;;;-0.07;100.00
15477;BME280;7840;42.702;23.296;2023-01-31T03:28:52;94707.97;;;-0.13;100.00
15477;BME280;7840;42.702;23.296;2023-01-31T03:31:26;94710.94;;;-0.16;100.00
15477;BME280;7840;42.702;23.296;2023-01-31T03:34:20;94729.69;;;-0.21;100.00
15477;BME280;7840;42.702;23.296;2023-01-31T03:36:57;94723.09;;;-0.23;100.00
15477;BME280;7840;42.702;23.296;2023-01-31T03:39:59;94729.09;;;-0.23;100.00
15477;BME280;7840;42.702;23.296;2023-01-31T03:42:35;94731.34;;;-0.20;100.00
15477;BME280;7840;42.702;23.296;2023-01-31T03:45:10;94749.56;;;-0.20;100.00
15477;BME280;7840;42.702;23.296;2023-01-31T03:47:41;94748.41;;;-0.11;100.00
15477;BME280;7840;42.702;23.296;2023-01-31T03:50:15;94746.63;;;-0.10;100.00
15477;BME280;7840;42.702;23.296;2023-01-31T03:52:54;94744.75;;;-0.16;100.00
15477;BME280;7840;42.702;23.296;2023-01-31T03:55:31;94759.09;;;-0.27;100.00
15477;BME280;7840;42.702;23.296;2023-01-31T03:58:12;94740.88;;;-0.27;100.00
15477;BME280;7840;42.702;23.296;2023-01-31T04:00:43;94745.03;;;-0.33;100.00
15477;BME280;7840;42.702;23.296;2023-01-31T04:03:35;94744.25;;;-0.33;100.00
15477;BME280;7840;42.702;23.296;2023-01-31T04:06:08;94737.28;;;-0.26;100.00
15477;BME280;7840;42.702;23.296;2023-01-31T04:08:45;94747.13;;;-0.21;100.00
15477;BME280;7840;42.702;23.296;2023-01-31T04:11:18;94746.41;;;-0.09;100.00
15477;BME280;7840;42.702;23.296;2023-01-31T04:13:48;94752.31;;;-0.21;100.00
15477;BME280;7840;42.702;23.296;2023-01-31T04:16:20;94753.19;;;-0.14;100.00
15477;BME280;7840;42.702;23.296;2023-01-31T04:18:48;94744.75;;;-0.16;100.00
15477;BME280;7840;42.702;23.296;2023-01-31T04:21:17;94757.09;;;-0.25;100.00
15477;BME280;7840;42.702;23.296;2023-01-31T04:23:47;94737.50;;;-0.21;100.00
15477;BME280;7840;42.702;23.296;2023-01-31T04:26:18;94753.50;;;-0.24;100.00
15477;BME280;7840;42.702;23.296;2023-01-31T04:28:48;94748.75;;;-0.20;100.00
15477;BME280;7840;42.702;23.296;2023-01-31T04:31:19;94760.06;;;-0.28;100.00
15477;BME280;7840;42.702;23.296;2023-01-31T04:33:46;94750.38;;;-0.41;100.00
15477;BME280;7840;42.702;23.296;2023-01-31T04:36:17;94757.00;;;-0.38;100.00
15477;BME280;7840;42.702;23.296;2023-01-31T04:38:45;94756.53;;;-0.42;100.00
15477;BME280;7840;42.702;23.296;2023-01-31T04:41:25;94766.41;;;-0.37;100.00
15477;BME280;7840;42.702;23.296;2023-01-31T04:43:57;94766.34;;;-0.44;100.00
15477;BME280;7840;42.702;23.296;2023-01-31T04:46:25;94763.31;;;-0.47;100.00
15477;BME280;7840;42.702;23.296;2023-01-31T04:48:53;94773.53;;;-0.46;100.00
15477;BME280;7840;42.702;23.296;2023-01-31T04:51:21;94772.47;;;-0.51;100.00
15477;BME280;7840;42.702;23.296;2023-01-31T04:53:48;94775.06;;;-0.51;100.00
15477;BME280;7840;42.702;23.296;2023-01-31T04:56:18;94770.63;;;-0.58;100.00
15477;BME280;7840;42.702;23.296;2023-01-31T04:58:48;94772.88;;;-0.54;100.00
15477;BME280;7840;42.702;23.296;2023-01-31T05:01:15;94773.72;;;-0.47;100.00
15477;BME280;7840;42.702;23.296;2023-01-31T05:03:43;94763.69;;;-0.50;100.00
15477;BME280;7840;42.702;23.296;2023-01-31T05:06:14;94786.16;;;-0.43;100.00
15477;BME280;7840;42.702;23.296;2023-01-31T05:08:48;94772.47;;;-0.51;100.00
15477;BME280;7840;42.702;23.296;2023-01-31T05:11:19;94785.75;;;-0.46;100.00
15477;BME280;7840;42.702;23.296;2023-01-31T05:14:06;94783.06;;;-0.53;100.00
15477;BME280;7840;42.702;23.296;2023-01-31T05:16:38;94782.56;;;-0.42;100.00
15477;BME280;7840;42.702;23.296;2023-01-31T05:19:06;94774.59;;;-0.40;100.00
15477;BME280;7840;42.702;23.296;2023-01-31T05:21:46;94771.81;;;-0.39;100.00
15477;BME280;7840;42.702;23.296;2023-01-31T05:24:26;94788.28;;;-0.32;100.00
15477;BME280;7840;42.702;23.296;2023-01-31T05:26:57;94771.88;;;-0.32;100.00
15477;BME280;7840;42.702;23.296;2023-01-31T05:29:30;94777.88;;;-0.32;100.00
15477;BME280;7840;42.702;23.296;2023-01-31T05:32:10;94773.94;;;-0.21;100.00
15477;BME280;7840;42.702;23.296;2023-01-31T05:34:49;94776.31;;;-0.26;100.00
15477;BME280;7840;42.702;23.296;2023-01-31T05:37:19;94784.13;;;-0.26;100.00
15477;BME280;7840;42.702;23.296;2023-01-31T05:39:47;94778.53;;;-0.23;100.00
15477;BME280;7840;42.702;23.296;2023-01-31T05:42:14;94787.59;;;-0.19;100.00
15477;BME280;7840;42.702;23.296;2023-01-31T05:44:44;94791.19;;;-0.20;100.00
15477;BME280;7840;42.702;23.296;2023-01-31T05:47:11;94794.41;;;-0.18;100.00
15477;BME280;7840;42.702;23.296;2023-01-31T05:49:39;94801.59;;;-0.20;100.00
15477;BME280;7840;42.702;23.296;2023-01-31T05:52:06;94801.47;;;-0.12;100.00
15477;BME280;7840;42.702;23.296;2023-01-31T05:54:56;94803.38;;;0.01;100.00
15477;BME280;7840;42.702;23.296;2023-01-31T05:58:02;94807.41;;;0.04;100.00
15477;BME280;7840;42.702;23.296;2023-01-31T06:00:35;94813.97;;;-0.01;100.00
15477;BME280;7840;42.702;23.296;2023-01-31T06:03:19;94813.06;;;0.07;100.00
15477;BME280;7840;42.702;23.296;2023-01-31T06:05:47;94808.88;;;0.13;100.00
15477;BME280;7840;42.702;23.296;2023-01-31T06:08:15;94805.28;;;0.14;100.00
15477;BME280;7840;42.702;23.296;2023-01-31T06:10:43;94805.41;;;0.06;100.00
15477;BME280;7840;42.702;23.296;2023-01-31T06:13:11;94811.91;;;0.16;100.00
15477;BME280;7840;42.702;23.296;2023-01-31T06:15:43;94812.66;;;0.10;100.00
15477;BME280;7840;42.702;23.296;2023-01-31T06:18:11;94811.88;;;0.10;100.00
15477;BME280;7840;42.702;23.296;2023-01-31T06:20:39;94813.84;;;0.08;100.00
15477;BME280;7840;42.702;23.296;2023-01-31T06:23:07;94813.91;;;0.14;100.00
15477;BME280;7840;42.702;23.296;2023-01-31T06:25:34;94811.16;;;0.22;100.00
15477;BME280;7840;42.702;23.296;2023-01-31T06:28:02;94814.81;;;0.28;100.00
15477;BME280;7840;42.702;23.296;2023-01-31T06:30:36;94805.16;;;0.22;100.00
15477;BME280;7840;42.702;23.296;2023-01-31T06:33:05;94809.16;;;0.24;100.00
15477;BME280;7840;42.702;23.296;2023-01-31T06:35:34;94801.97;;;0.26;100.00
15477;BME280;7840;42.702;23.296;2023-01-31T06:38:06;94824.03;;;0.31;100.00
15477;BME280;7840;42.702;23.296;2023-01-31T06:40:56;94807.97;;;0.27;100.00
15477;BME280;7840;42.702;23.296;2023-01-31T06:43:24;94817.28;;;0.36;100.00
15477;BME280;7840;42.702;23.296;2023-01-31T06:45:52;94811.22;;;0.29;100.00
15477;BME280;7840;42.702;23.296;2023-01-31T06:48:21;94812.38;;;0.26;100.00
15477;BME280;7840;42.702;23.296;2023-01-31T06:50:48;94818.28;;;0.35;100.00
15477;BME280;7840;42.702;23.296;2023-01-31T06:53:16;94819.94;;;0.43;100.00
15477;BME280;7840;42.702;23.296;2023-01-31T06:55:43;94821.72;;;0.42;100.00
15477;BME280;7840;42.702;23.296;2023-01-31T06:58:11;94818.88;;;0.37;100.00
15477;BME280;7840;42.702;23.296;2023-01-31T07:00:39;94827.56;;;0.44;100.00
15477;BME280;7840;42.702;23.296;2023-01-31T07:03:09;94831.16;;;0.43;100.00
15477;BME280;7840;42.702;23.296;2023-01-31T07:05:39;94832.38;;;0.47;100.00
15477;BME280;7840;42.702;23.296;2023-01-31T07:08:08;94836.81;;;0.53;100.00
15477;BME280;7840;42.702;23.296;2023-01-31T07:10:42;94835.22;;;0.52;100.00
15477;BME280;7840;42.702;23.296;2023-01-31T07:13:35;94836.69;;;0.62;100.00
15477;BME280;7840;42.702;23.296;2023-01-31T07:16:27;94831.09;;;0.65;100.00
15477;BME280;7840;42.702;23.296;2023-01-31T07:18:55;94833.19;;;0.76;100.00
15477;BME280;7840;42.702;23.296;2023-01-31T07:21:24;94837.56;;;0.69;100.00
15477;BME280;7840;42.702;23.296;2023-01-31T07:24:13;94842.38;;;0.72;100.00
15477;BME280;7840;42.702;23.296;2023-01-31T07:26:58;94846.81;;;0.78;100.00
15477;BME280;7840;42.702;23.296;2023-01-31T07:29:52;94828.56;;;0.78;100.00
15477;BME280;7840;42.702;23.296;2023-01-31T07:32:39;94838.16;;;0.71;100.00
15477;BME280;7840;42.702;23.296;2023-01-31T07:35:27;94850.94;;;0.66;100.00
15477;BME280;7840;42.702;23.296;2023-01-31T07:38:25;94833.09;;;0.63;100.00
15477;BME280;7840;42.702;23.296;2023-01-31T07:40:58;94837.97;;;0.72;100.00
15477;BME280;7840;42.702;23.296;2023-01-31T07:43:45;94855.88;;;0.89;100.00
15477;BME280;7840;42.702;23.296;2023-01-31T07:46:19;94848.03;;;0.82;100.00
15477;BME280;7840;42.702;23.296;2023-01-31T07:48:48;94847.25;;;0.88;100.00
15477;BME280;7840;42.702;23.296;2023-01-31T07:51:19;94836.47;;;0.91;100.00
15477;BME280;7840;42.702;23.296;2023-01-31T07:54:12;94830.78;;;0.81;100.00
15477;BME280;7840;42.702;23.296;2023-01-31T07:56:57;94836.84;;;0.88;100.00
15477;BME280;7840;42.702;23.296;2023-01-31T08:00:13;94836.06;;;0.94;100.00
15477;BME280;7840;42.702;23.296;2023-01-31T08:02:58;94850.03;;;0.80;100.00
15477;BME280;7840;42.702;23.296;2023-01-31T08:06:03;94844.78;;;0.73;100.00
15477;BME280;7840;42.702;23.296;2023-01-31T08:09:04;94842.44;;;0.85;100.00
15477;BME280;7840;42.702;23.296;2023-01-31T08:11:52;94833.09;;;0.97;100.00
15477;BME280;7840;42.702;23.296;2023-01-31T08:14:36;94860.44;;;1.15;100.00
15477;BME280;7840;42.702;23.296;2023-01-31T08:17:06;94852.06;;;1.19;100.00
15477;BME280;7840;42.702;23.296;2023-01-31T08:19:34;94850.28;;;1.26;100.00
15477;BME280;7840;42.702;23.296;2023-01-31T08:22:38;94837.50;;;1.38;100.00
15477;BME280;7840;42.702;23.296;2023-01-31T08:25:32;94826.31;;;1.71;100.00
15477;BME280;7840;42.702;23.296;2023-01-31T08:28:22;94829.38;;;1.81;100.00
15477;BME280;7840;42.702;23.296;2023-01-31T08:30:57;94819.94;;;1.86;100.00
15477;BME280;7840;42.702;23.296;2023-01-31T08:33:36;94839.06;;;2.20;100.00
15477;BME280;7840;42.702;23.296;2023-01-31T08:36:11;94828.41;;;2.28;100.00
15477;BME280;7840;42.702;23.296;2023-01-31T08:39:04;94822.56;;;2.19;100.00
15477;BME280;7840;42.702;23.296;2023-01-31T08:41:39;94827.59;;;2.01;100.00
15477;BME280;7840;42.702;23.296;2023-01-31T08:44:20;94824.38;;;1.99;100.00
15477;BME280;7840;42.702;23.296;2023-01-31T08:57:11;94841.47;;;2.08;100.00
15477;BME280;7840;42.702;23.296;2023-01-31T08:59:41;94826.81;;;2.27;100.00
15477;BME280;7840;42.702;23.296;2023-01-31T09:02:12;94848.13;;;2.31;100.00
15477;BME280;7840;42.702;23.296;2023-01-31T09:04:49;94833.63;;;2.08;100.00
15477;BME280;7840;42.702;23.296;2023-01-31T09:07:17;94845.91;;;2.28;100.00
15477;BME280;7840;42.702;23.296;2023-01-31T09:09:47;94840.69;;;2.14;100.00
15477;BME280;7840;42.702;23.296;2023-01-31T09:12:15;94841.06;;;2.31;100.00
15477;BME280;7840;42.702;23.296;2023-01-31T09:14:50;94845.28;;;2.39;100.00
15477;BME280;7840;42.702;23.296;2023-01-31T09:17:23;94840.06;;;2.52;100.00
15477;BME280;7840;42.702;23.296;2023-01-31T09:19:55;94834.84;;;2.39;100.00
15477;BME280;7840;42.702;23.296;2023-01-31T09:22:39;94829.03;;;2.37;100.00
15477;BME280;7840;42.702;23.296;2023-01-31T09:25:08;94829.59;;;2.65;100.00
15477;BME280;7840;42.702;23.296;2023-01-31T09:28:10;94831.63;;;2.63;100.00
15477;BME280;7840;42.702;23.296;2023-01-31T09:31:00;94811.50;;;2.70;100.00
15477;BME280;7840;42.702;23.296;2023-01-31T09:33:45;94813.50;;;2.82;100.00
15477;BME280;7840;42.702;23.296;2023-01-31T09:36:15;94809.38;;;3.12;100.00
15477;BME280;7840;42.702;23.296;2023-01-31T09:38:47;94803.13;;;3.13;100.00
15477;BME280;7840;42.702;23.296;2023-01-31T09:41:34;94809.06;;;2.76;100.00
15477;BME280;7840;42.702;23.296;2023-01-31T09:44:18;94818.34;;;2.45;100.00
15477;BME280;7840;42.702;23.296;2023-01-31T09:47:04;94798.63;;;2.76;100.00
15477;BME280;7840;42.702;23.296;2023-01-31T09:52:37;94779.56;;;3.13;100.00
15477;BME280;7840;42.702;23.296;2023-01-31T09:55:16;94782.03;;;2.95;100.00
15477;BME280;7840;42.702;23.296;2023-01-31T09:58:06;94789.88;;;2.95;100.00
15477;BME280;7840;42.702;23.296;2023-01-31T10:01:00;94797.38;;;2.85;100.00
15477;BME280;7840;42.702;23.296;2023-01-31T10:04:11;94790.91;;;2.94;100.00
15477;BME280;7840;42.702;23.296;2023-01-31T10:10:02;94780.03;;;3.04;100.00
15477;BME280;7840;42.702;23.296;2023-01-31T10:12:48;94775.00;;;3.02;100.00
15477;BME280;7840;42.702;23.296;2023-01-31T10:15:33;94780.44;;;2.94;100.00
15477;BME280;7840;42.702;23.296;2023-01-31T10:18:07;94790.94;;;2.74;100.00
15477;BME280;7840;42.702;23.296;2023-01-31T10:21:17;94774.88;;;2.77;100.00
15477;BME280;7840;42.702;23.296;2023-01-31T10:24:04;94779.22;;;3.03;100.00
15477;BME280;7840;42.702;23.296;2023-01-31T10:26:40;94786.66;;;3.51;100.00
15477;BME280;7840;42.702;23.296;2023-01-31T10:29:13;94764.97;;;3.44;100.00
15477;BME280;7840;42.702;23.296;2023-01-31T10:31:45;94771.72;;;3.58;100.00
15477;BME280;7840;42.702;23.296;2023-01-31T10:34:18;94770.94;;;3.06;100.00
15477;BME280;7840;42.702;23.296;2023-01-31T10:36:54;94761.00;;;2.77;100.00
15477;BME280;7840;42.702;23.296;2023-01-31T10:39:28;94756.47;;;3.04;100.00
15477;BME280;7840;42.702;23.296;2023-01-31T10:42:09;94760.69;;;3.11;100.00
15477;BME280;7840;42.702;23.296;2023-01-31T10:44:44;94765.84;;;3.24;100.00
15477;BME280;7840;42.702;23.296;2023-01-31T10:47:31;94761.38;;;3.32;100.00
15477;BME280;7840;42.702;23.296;2023-01-31T10:50:28;94772.69;;;3.25;100.00
15477;BME280;7840;42.702;23.296;2023-01-31T10:53:25;94766.00;;;2.85;100.00
15477;BME280;7840;42.702;23.296;2023-01-31T10:56:22;94771.13;;;3.11;100.00
15477;BME280;7840;42.702;23.296;2023-01-31T10:59:24;94779.44;;;2.95;100.00
15477;BME280;7840;42.702;23.296;2023-01-31T11:01:56;94774.69;;;2.65;100.00
15477;BME280;7840;42.702;23.296;2023-01-31T11:04:30;94771.88;;;2.54;100.00
15477;BME280;7840;42.702;23.296;2023-01-31T11:07:12;94762.84;;;2.56;100.00
15477;BME280;7840;42.702;23.296;2023-01-31T11:09:47;94767.28;;;2.49;100.00
15477;BME280;7840;42.702;23.296;2023-01-31T11:12:17;94766.41;;;2.82;100.00
15477;BME280;7840;42.702;23.296;2023-01-31T11:15:04;94766.78;;;2.92;100.00
15477;BME280;7840;42.702;23.296;2023-01-31T11:17:35;94772.63;;;2.81;100.00
15477;BME280;7840;42.702;23.296;2023-01-31T11:20:05;94765.53;;;2.94;100.00
15477;BME280;7840;42.702;23.296;2023-01-31T11:22:37;94766.78;;;2.92;100.00
15477;BME280;7840;42.702;23.296;2023-01-31T11:25:24;94776.41;;;2.98;100.00
15477;BME280;7840;42.702;23.296;2023-01-31T11:27:55;94770.09;;;2.54;100.00
15477;BME280;7840;42.702;23.296;2023-01-31T11:30:26;94772.53;;;2.36;100.00
15477;BME280;7840;42.702;23.296;2023-01-31T11:33:40;94773.94;;;2.18;100.00
15477;BME280;7840;42.702;23.296;2023-01-31T11:36:15;94788.00;;;2.04;100.00
15477;BME280;7840;42.702;23.296;2023-01-31T11:38:48;94789.41;;;1.94;100.00
15477;BME280;7840;42.702;23.296;2023-01-31T11:41:40;94795.44;;;1.81;100.00
15477;BME280;7840;42.702;23.296;2023-01-31T11:44:19;94794.41;;;1.75;100.00
15477;BME280;7840;42.702;23.296;2023-01-31T11:46:51;94799.41;;;1.70;100.00
15477;BME280;7840;42.702;23.296;2023-01-31T11:52:20;94789.75;;;1.57;100.00
15477;BME280;7840;42.702;23.296;2023-01-31T11:54:55;94786.75;;;1.60;100.00
15477;BME280;7840;42.702;23.296;2023-01-31T11:57:45;94780.53;;;1.68;100.00
15477;BME280;7840;42.702;23.296;2023-01-31T12:00:22;94778.75;;;1.82;100.00
15477;BME280;7840;42.702;23.296;2023-01-31T12:02:57;94777.75;;;1.83;100.00
15477;BME280;7840;42.702;23.296;2023-01-31T12:05:34;94793.19;;;1.78;100.00
15477;BME280;7840;42.702;23.296;2023-01-31T12:08:02;94798.19;;;1.53;100.00
15477;BME280;7840;42.702;23.296;2023-01-31T12:10:33;94778.09;;;1.53;100.00
15477;BME280;7840;42.702;23.296;2023-01-31T12:13:17;94786.94;;;1.46;100.00
15477;BME280;7840;42.702;23.296;2023-01-31T12:15:51;94781.75;;;1.59;100.00
15477;BME280;7840;42.702;23.296;2023-01-31T12:18:49;94783.94;;;1.55;100.00
15477;BME280;7840;42.702;23.296;2023-01-31T12:21:51;94776.53;;;1.66;100.00
15477;BME280;7840;42.702;23.296;2023-01-31T12:24:37;94781.13;;;1.63;100.00
15477;BME280;7840;42.702;23.296;2023-01-31T12:27:18;94778.16;;;1.73;100.00
15477;BME280;7840;42.702;23.296;2023-01-31T12:30:11;94782.34;;;1.68;100.00
15477;BME280;7840;42.702;23.296;2023-01-31T12:32:58;94774.91;;;1.71;100.00
15477;BME280;7840;42.702;23.296;2023-01-31T12:35:54;94770.91;;;1.75;100.00
15477;BME280;7840;42.702;23.296;2023-01-31T12:38:40;94764.28;;;1.73;100.00
15477;BME280;7840;42.702;23.296;2023-01-31T12:41:25;94767.31;;;1.83;100.00
15477;BME280;7840;42.702;23.296;2023-01-31T12:44:25;94782.56;;;1.66;100.00
15477;BME280;7840;42.702;23.296;2023-01-31T12:47:35;94780.13;;;1.71;100.00
15477;BME280;7840;42.702;23.296;2023-01-31T12:50:29;94782.94;;;1.70;100.00
15477;BME280;7840;42.702;23.296;2023-01-31T12:56:43;94784.53;;;1.57;100.00
15477;BME280;7840;42.702;23.296;2023-01-31T12:59:25;94778.94;;;1.67;100.00
15477;BME280;7840;42.702;23.296;2023-01-31T13:02:20;94770.72;;;1.77;100.00
15477;BME280;7840;42.702;23.296;2023-01-31T13:04:56;94771.69;;;1.69;100.00
15477;BME280;7840;42.702;23.296;2023-01-31T13:07:29;94777.16;;;1.81;100.00
15477;BME280;7840;42.702;23.296;2023-01-31T13:10:02;94777.94;;;1.75;100.00
15477;BME280;7840;42.702;23.296;2023-01-31T13:12:33;94770.50;;;1.85;100.00
15477;BME280;7840;42.702;23.296;2023-01-31T13:15:05;94766.94;;;1.92;100.00
15477;BME280;7840;42.702;23.296;2023-01-31T13:17:54;94799.84;;;1.87;100.00
15477;BME280;7840;42.702;23.296;2023-01-31T13:20:30;94778.75;;;1.88;100.00
15477;BME280;7840;42.702;23.296;2023-01-31T13:23:07;94791.81;;;1.82;100.00
15477;BME280;7840;42.702;23.296;2023-01-31T13:25:55;94784.78;;;1.82;100.00
15477;BME280;7840;42.702;23.296;2023-01-31T13:28:27;94787.41;;;1.89;100.00
15477;BME280;7840;42.702;23.296;2023-01-31T13:30:57;94793.84;;;1.93;100.00
15477;BME280;7840;42.702;23.296;2023-01-31T13:33:31;94783.78;;;1.90;100.00
15477;BME280;7840;42.702;23.296;2023-01-31T13:36:08;94776.56;;;1.79;100.00
15477;BME280;7840;42.702;23.296;2023-01-31T13:38:40;94798.22;;;1.73;100.00
15477;BME280;7840;42.702;23.296;2023-01-31T13:41:13;94787.38;;;1.69;100.00
15477;BME280;7840;42.702;23.296;2023-01-31T13:43:44;94780.56;;;1.75;100.00
15477;BME280;7840;42.702;23.296;2023-01-31T13:46:13;94785.78;;;1.75;100.00
15477;BME280;7840;42.702;23.296;2023-01-31T13:48:49;94782.59;;;1.86;100.00
15477;BME280;7840;42.702;23.296;2023-01-31T13:51:26;94789.41;;;1.87;100.00
15477;BME280;7840;42.702;23.296;2023-01-31T13:54:00;94770.50;;;1.85;100.00
15477;BME280;7840;42.702;23.296;2023-01-31T13:56:33;94791.41;;;1.98;100.00
15477;BME280;7840;42.702;23.296;2023-01-31T13:59:07;94786.19;;;1.98;100.00
15477;BME280;7840;42.702;23.296;2023-01-31T14:01:43;94791.41;;;1.98;100.00
15477;BME280;7840;42.702;23.296;2023-01-31T14:04:30;94793.44;;;1.96;100.00
15477;BME280;7840;42.702;23.296;2023-01-31T14:07:23;94790.00;;;1.89;100.00
15477;BME280;7840;42.702;23.296;2023-01-31T14:13:41;94814.91;;;1.85;100.00
15477;BME280;7840;42.702;23.296;2023-01-31T14:16:39;94822.13;;;1.83;100.00
15477;BME280;7840;42.702;23.296;2023-01-31T14:28:10;94803.44;;;1.73;100.00
15477;BME280;7840;42.702;23.296;2023-01-31T14:31:07;94812.69;;;1.82;100.00
15477;BME280;7840;42.702;23.296;2023-01-31T14:33:47;94815.91;;;1.77;100.00
15477;BME280;7840;42.702;23.296;2023-01-31T14:36:51;94801.25;;;1.76;100.00
15477;BME280;7840;42.702;23.296;2023-01-31T14:43:19;94815.88;;;1.71;100.00
15477;BME280;7840;42.702;23.296;2023-01-31T14:46:13;94822.91;;;1.63;100.00